KEQA

El Dorado / Captain Jack Thomas Memorial Airport

El Dorado, Kansas, USA
METAR KEQA 241215Z AUTO 00000KT 2SM BR OVC003 01/01 A2996 RMK AO2
Observed Flight Rules
Feb-24 @ 12:15 UTC (8 minutes ago) Instrument Flight Rules
Wind Visibility Clouds Conditions
Calm 2 miles
  • Overcast at 300' AGL
  • Mist
Temperatures Readings
Current 1°C / 34°F
Dewpoint 1°C / 34°F
Humidity 100%
Altimeter 29.96" Hg
Pressure 1015 hPa
Elevation 420
METAR KEQA 241215Z AUTO 00000KT 2SM BR OVC003 01/01 A2996 RMK AO2
Observed Flight Rules
Feb-24 @ 12:15 UTC
(8 minutes ago)
LIFR
Wind Visibility
Calm 2 miles
Clouds
  • Overcast at 300' AGL
Conditions
  • Mist
Temperature Dewpoint
1°C / 34°F 1°C / 34°F
Humidity Altimeter Pressure
100% 29.96" Hg 1015 hPa